createdAt,value
2018-09-19T00:00:24.422Z,1001.27
2018-09-19T00:01:34.264Z,1001.33
2018-09-19T00:02:44.348Z,1001.37
2018-09-19T00:03:54.179Z,1001.37
2018-09-19T00:05:03.990Z,1001.32
2018-09-19T00:06:14.079Z,1001.37
2018-09-19T00:07:23.698Z,1001.36
2018-09-19T00:08:33.246Z,1001.36
2018-09-19T00:09:43.386Z,1001.36
2018-09-19T00:10:53.488Z,1001.36
2018-09-19T00:12:03.729Z,1001.32
2018-09-19T00:13:13.257Z,1001.31
2018-09-19T00:14:23.341Z,1001.32
2018-09-19T00:15:33.201Z,1001.33
2018-09-19T00:16:43.288Z,1001.35
2018-09-19T00:17:52.833Z,1001.33
2018-09-19T00:19:02.936Z,1001.33
2018-09-19T00:20:12.864Z,1001.35
2018-09-19T00:21:23.548Z,1001.35
2018-09-19T00:22:33.638Z,1001.39
2018-09-19T00:23:43.717Z,1001.36
2018-09-19T00:24:53.820Z,1001.35
2018-09-19T00:26:04.846Z,1001.34
2018-09-19T00:27:15.075Z,1001.34
2018-09-19T00:28:25.190Z,1001.33
2018-09-19T00:29:35.055Z,1001.32
2018-09-19T00:30:45.172Z,1001.33
2018-09-19T00:31:54.988Z,1001.33
2018-09-19T00:33:05.098Z,1001.35
2018-09-19T00:34:15.190Z,1001.34
2018-09-19T00:35:25.297Z,1001.33
2018-09-19T00:36:35.114Z,1001.32
2018-09-19T00:37:44.940Z,1001.34
2018-09-19T00:38:55.049Z,1001.33
2018-09-19T00:40:05.189Z,1001.37
2018-09-19T00:41:15.012Z,1001.36
2018-09-19T00:42:25.160Z,1001.36
2018-09-19T00:43:35.251Z,1001.36
2018-09-19T00:44:45.347Z,1001.4
2018-09-19T00:45:55.186Z,1001.39
2018-09-19T00:47:05.275Z,1001.42
2018-09-19T00:48:15.372Z,1001.46
2018-09-19T00:49:25.459Z,1001.48
2018-09-19T00:50:35.277Z,1001.49
2018-09-19T00:51:45.123Z,1001.53
2018-09-19T00:52:55.223Z,1001.56
2018-09-19T00:54:05.049Z,1001.59
2018-09-19T00:55:15.370Z,1001.62
2018-09-19T00:56:25.458Z,1001.56
2018-09-19T00:57:35.549Z,1001.51
2018-09-19T00:58:45.644Z,1001.53
2018-09-19T00:59:55.788Z,1001.56
2018-09-19T01:01:08.904Z,1001.53
2018-09-19T01:02:19.054Z,1001.52
2018-09-19T01:03:29.162Z,1001.52
2018-09-19T01:04:39.360Z,1001.53
2018-09-19T01:05:48.930Z,1001.55
2018-09-19T01:06:58.990Z,1001.58
2018-09-19T01:08:09.138Z,1001.58
2018-09-19T01:09:19.228Z,1001.57
2018-09-19T01:10:29.111Z,1001.62
2018-09-19T01:11:39.253Z,1001.67
2018-09-19T01:12:49.356Z,1001.64
2018-09-19T01:13:59.245Z,1001.66
2018-09-19T01:15:09.071Z,1001.64
2018-09-19T01:16:19.159Z,1001.62
2018-09-19T01:17:29.257Z,1001.6
2018-09-19T01:18:38.826Z,1001.66
2018-09-19T01:19:48.896Z,1001.64
2018-09-19T01:20:58.698Z,1001.6
2018-09-19T01:22:08.799Z,1001.59
2018-09-19T01:23:18.895Z,1001.61
2018-09-19T01:24:28.968Z,1001.64
2018-09-19T01:25:38.847Z,1001.64
2018-09-19T01:26:48.921Z,1001.6
2018-09-19T01:27:59.021Z,1001.63
2018-09-19T01:29:10.911Z,1001.64
2018-09-19T01:30:20.992Z,1001.59
2018-09-19T01:31:30.553Z,1001.55
2018-09-19T01:32:40.653Z,1001.53
2018-09-19T01:33:50.745Z,1001.5
2018-09-19T01:35:00.853Z,1001.53
2018-09-19T01:36:10.947Z,1001.54
2018-09-19T01:37:21.033Z,1001.53
2018-09-19T01:38:31.102Z,1001.47
2018-09-19T01:39:41.180Z,1001.45
2018-09-19T01:40:51.246Z,1001.47
2018-09-19T01:42:01.059Z,1001.5
2018-09-19T01:43:11.203Z,1001.56
2018-09-19T01:44:21.295Z,1001.57
2018-09-19T01:45:31.413Z,1001.54
2018-09-19T01:46:41.546Z,1001.59
2018-09-19T01:47:51.631Z,1001.58
2018-09-19T01:49:01.448Z,1001.61
2018-09-19T01:50:11.559Z,1001.65
2018-09-19T01:51:21.659Z,1001.67
2018-09-19T01:52:31.753Z,1001.66
2018-09-19T01:53:41.595Z,1001.66
2018-09-19T01:54:51.709Z,1001.64
2018-09-19T01:56:02.891Z,1001.7
2018-09-19T01:57:13.016Z,1001.7
2018-09-19T01:58:22.839Z,1001.68
2018-09-19T01:59:32.664Z,1001.72
2018-09-19T02:00:42.550Z,1001.72
2018-09-19T02:01:52.663Z,1001.64
2018-09-19T02:03:02.767Z,1001.69
2018-09-19T02:04:12.327Z,1001.69
2018-09-19T02:05:22.443Z,1001.72
2018-09-19T02:06:32.535Z,1001.7
2018-09-19T02:07:42.344Z,1001.69
2018-09-19T02:08:52.453Z,1001.71
2018-09-19T02:10:02.472Z,1001.69
2018-09-19T02:11:12.551Z,1001.64
2018-09-19T02:12:22.700Z,1001.63
2018-09-19T02:13:32.800Z,1001.64
2018-09-19T02:14:42.615Z,1001.68
2018-09-19T02:15:52.702Z,1001.65
2018-09-19T02:17:02.515Z,1001.68
2018-09-19T02:18:12.618Z,1001.66
2018-09-19T02:19:22.794Z,1001.66
2018-09-19T02:20:32.891Z,1001.65
2018-09-19T02:21:42.997Z,1001.62
2018-09-19T02:22:53.136Z,1001.68
2018-09-19T02:24:03.306Z,1001.6
2018-09-19T02:25:13.394Z,1001.65
2018-09-19T02:26:23.479Z,1001.64
2018-09-19T02:27:33.040Z,1001.64
2018-09-19T02:28:43.203Z,1001.68
2018-09-19T02:29:53.225Z,1001.66
2018-09-19T02:31:07.891Z,1001.67
2018-09-19T02:32:17.460Z,1001.7
2018-09-19T02:33:27.296Z,1001.73
2018-09-19T02:34:36.855Z,1001.72
2018-09-19T02:35:46.972Z,1001.77
2018-09-19T02:36:57.064Z,1001.79
2018-09-19T02:38:07.463Z,1001.8
2018-09-19T02:39:17.301Z,1001.73
2018-09-19T02:40:27.379Z,1001.77
2018-09-19T02:41:37.457Z,1001.77
2018-09-19T02:42:47.568Z,1001.76
2018-09-19T02:43:57.674Z,1001.77
2018-09-19T02:45:07.570Z,1001.73
2018-09-19T02:46:17.670Z,1001.74
2018-09-19T02:47:27.637Z,1001.69
2018-09-19T02:48:37.198Z,1001.71
2018-09-19T02:49:47.058Z,1001.7
2018-09-19T02:50:56.868Z,1001.67
2018-09-19T02:52:07.028Z,1001.65
2018-09-19T02:53:17.128Z,1001.62
2018-09-19T02:54:27.279Z,1001.59
2018-09-19T02:55:37.587Z,1001.6
2018-09-19T02:56:47.413Z,1001.59
2018-09-19T02:57:57.233Z,1001.58
2018-09-19T02:59:08.594Z,1001.6
2018-09-19T03:00:18.688Z,1001.61
2018-09-19T03:01:28.765Z,1001.62
2018-09-19T03:02:38.591Z,1001.57
2018-09-19T03:34:45.978Z,1001.6
2018-09-19T03:35:56.070Z,1001.63
2018-09-19T03:37:06.138Z,1001.63
2018-09-19T03:38:16.259Z,1001.65
2018-09-19T03:39:26.346Z,1001.67
2018-09-19T03:40:36.184Z,1001.64
2018-09-19T03:41:46.003Z,1001.63
2018-09-19T03:42:56.082Z,1001.59
2018-09-19T03:44:05.641Z,1001.63
2018-09-19T03:45:15.741Z,1001.59
2018-09-19T03:46:25.825Z,1001.61
2018-09-19T03:47:35.913Z,1001.62
2018-09-19T03:48:45.748Z,1001.63
2018-09-19T03:49:55.577Z,1001.66
2018-09-19T03:51:08.686Z,1001.66
2018-09-19T03:52:18.815Z,1001.65
2018-09-19T03:53:28.973Z,1001.65
2018-09-19T03:54:39.078Z,1001.65
2018-09-19T03:55:49.164Z,1001.69
2018-09-19T03:56:58.989Z,1001.69
2018-09-19T03:58:09.136Z,1001.71
2018-09-19T03:59:19.487Z,1001.75
2018-09-19T04:00:29.577Z,1001.78
2018-09-19T04:01:39.126Z,1001.76
2018-09-19T04:02:49.243Z,1001.77
2018-09-19T04:03:59.390Z,1001.75
2018-09-19T04:05:09.489Z,1001.77
2018-09-19T04:06:19.600Z,1001.74
2018-09-19T04:07:29.735Z,1001.76
2018-09-19T04:08:39.616Z,1001.76
2018-09-19T04:09:49.693Z,1001.72
2018-09-19T04:10:59.824Z,1001.74
2018-09-19T04:12:09.937Z,1001.74
2018-09-19T04:13:20.056Z,1001.8
2018-09-19T04:14:30.207Z,1001.84
2018-09-19T04:15:40.331Z,1001.82
2018-09-19T04:16:50.143Z,1001.83
2018-09-19T04:18:00.290Z,1001.83
2018-09-19T04:19:10.408Z,1001.84
2018-09-19T04:20:20.223Z,1001.87
2018-09-19T04:21:30.365Z,1001.9
2018-09-19T04:22:40.456Z,1001.87
2018-09-19T04:23:50.553Z,1001.85
2018-09-19T04:25:00.394Z,1001.89
2018-09-19T04:26:10.211Z,1001.89
2018-09-19T04:27:20.370Z,1001.89
2018-09-19T04:28:30.470Z,1001.87
2018-09-19T04:29:40.547Z,1001.89
2018-09-19T04:30:50.661Z,1001.88
2018-09-19T04:32:03.099Z,1001.86
2018-09-19T04:33:13.412Z,1001.84
2018-09-19T04:34:23.528Z,1001.91
2018-09-19T04:35:33.601Z,1001.89
2018-09-19T04:36:43.739Z,1001.92
2018-09-19T04:37:53.840Z,1001.91
2018-09-19T04:39:05.880Z,1001.88
2018-09-19T04:40:15.713Z,1001.93
2018-09-19T04:41:25.818Z,1001.92
2018-09-19T04:42:35.654Z,1001.95
2018-09-19T04:43:45.479Z,1001.95
2018-09-19T04:44:55.581Z,1001.98
2018-09-19T04:46:06.069Z,1001.98
2018-09-19T04:47:16.167Z,1001.99
2018-09-19T04:48:26.009Z,1001.96
2018-09-19T04:49:36.094Z,1002
2018-09-19T04:50:46.223Z,1002.05
2018-09-19T04:51:56.315Z,1002.03
2018-09-19T04:53:06.432Z,1002.04
2018-09-19T04:54:16.243Z,1002.07
2018-09-19T04:55:26.391Z,1002.11
2018-09-19T04:56:36.537Z,1002.1
2018-09-19T04:57:46.644Z,1002.12
2018-09-19T04:58:56.493Z,1002.13
2018-09-19T05:00:06.582Z,1002.15
2018-09-19T05:01:16.679Z,1002.16
2018-09-19T05:02:26.236Z,1002.18
2018-09-19T05:03:36.077Z,1002.16
2018-09-19T05:04:46.184Z,1002.17
2018-09-19T05:05:56.270Z,1002.18
2018-09-19T05:07:06.461Z,1002.2
2018-09-19T05:08:16.521Z,1002.18
2018-09-19T05:09:26.348Z,1002.18
2018-09-19T05:10:36.491Z,1002.18
2018-09-19T05:11:46.592Z,1002.25
2018-09-19T05:12:56.674Z,1002.27
2018-09-19T05:14:06.846Z,1002.24
2018-09-19T05:15:16.683Z,1002.27
2018-09-19T05:16:26.505Z,1002.3
2018-09-19T05:17:36.601Z,1002.35
2018-09-19T05:18:46.713Z,1002.34
2018-09-19T05:19:56.848Z,1002.37
2018-09-19T05:21:06.954Z,1002.38
2018-09-19T05:22:17.041Z,1002.44
2018-09-19T05:23:27.117Z,1002.39
2018-09-19T05:24:37.255Z,1002.46
2018-09-19T05:25:47.346Z,1002.46
2018-09-19T05:26:57.442Z,1002.45
2018-09-19T05:28:07.527Z,1002.46
2018-09-19T05:29:17.625Z,1002.5
2018-09-19T05:30:27.491Z,1002.55
2018-09-19T05:31:37.725Z,1002.52
2018-09-19T05:32:48.509Z,1002.56
2018-09-19T05:33:58.325Z,1002.55
2018-09-19T05:35:08.929Z,1002.57
2018-09-19T05:36:19.030Z,1002.57
2018-09-19T05:37:29.167Z,1002.58
2018-09-19T05:38:39.257Z,1002.56
2018-09-19T05:39:49.339Z,1002.66
2018-09-19T05:40:59.167Z,1002.64
2018-09-19T05:42:09.249Z,1002.65
2018-09-19T05:43:19.329Z,1002.66
2018-09-19T05:44:29.435Z,1002.71
2018-09-19T05:45:39.273Z,1002.75
2018-09-19T05:46:48.816Z,1002.76
2018-09-19T05:47:58.902Z,1002.77
2018-09-19T05:49:10.731Z,1002.79
2018-09-19T05:50:20.821Z,1002.76
2018-09-19T05:51:30.626Z,1002.73
2018-09-19T05:52:40.433Z,1002.67
2018-09-19T05:53:50.268Z,1002.72
2018-09-19T05:55:00.404Z,1002.74
2018-09-19T05:56:10.504Z,1002.71
2018-09-19T05:57:20.585Z,1002.67
2018-09-19T05:58:30.678Z,1002.72
2018-09-19T05:59:40.515Z,1002.74
2018-09-19T06:00:50.604Z,1002.71
2018-09-19T06:02:00.888Z,1002.72
2018-09-19T06:03:10.970Z,1002.71
2018-09-19T06:04:21.038Z,1002.75
2018-09-19T06:05:31.128Z,1002.78
2018-09-19T06:06:40.956Z,1002.77
2018-09-19T06:07:51.100Z,1002.75
2018-09-19T06:09:03.564Z,1002.76
2018-09-19T06:10:13.636Z,1002.75
2018-09-19T06:11:23.179Z,1002.78
2018-09-19T06:12:33.254Z,1002.78
2018-09-19T06:13:43.120Z,1002.8
2018-09-19T06:14:53.260Z,1002.83
2018-09-19T06:16:04.245Z,1002.84
2018-09-19T06:17:14.423Z,1002.86
2018-09-19T06:18:24.518Z,1002.89
2018-09-19T06:19:34.604Z,1002.9
2018-09-19T06:20:44.680Z,1002.92
2018-09-19T06:21:54.757Z,1002.91
2018-09-19T06:23:04.839Z,1002.92
2018-09-19T06:24:14.931Z,1002.92
2018-09-19T06:25:25.027Z,1002.89
2018-09-19T06:26:35.136Z,1002.86
2018-09-19T06:27:44.965Z,1002.93
2018-09-19T06:28:55.073Z,1002.94
2018-09-19T06:30:05.870Z,1002.96
2018-09-19T06:31:16.006Z,1002.95
2018-09-19T06:32:26.110Z,1002.97
2018-09-19T06:33:36.249Z,1002.96
2018-09-19T06:34:46.434Z,1002.95
2018-09-19T06:35:56.567Z,1002.97
2018-09-19T06:37:06.723Z,1002.94
2018-09-19T06:38:17.110Z,1002.97
2018-09-19T06:39:27.061Z,1002.95
2018-09-19T06:40:36.995Z,1003.01
2018-09-19T06:41:48.032Z,1003.03
2018-09-19T06:42:58.209Z,1003.02
2018-09-19T06:44:08.305Z,1003.07
2018-09-19T06:45:18.416Z,1003.12
2018-09-19T06:46:28.559Z,1003.08
2018-09-19T06:47:38.682Z,1003.13
2018-09-19T06:48:48.766Z,1003.12
2018-09-19T06:49:58.641Z,1003.14
2018-09-19T06:51:08.742Z,1003.15
2018-09-19T06:52:18.923Z,1003.17
2018-09-19T06:53:29.913Z,1003.12
2018-09-19T06:54:40.018Z,1003.14
2018-09-19T06:55:50.102Z,1003.19
2018-09-19T06:57:00.432Z,1003.18
2018-09-19T06:58:10.570Z,1003.22
2018-09-19T06:59:20.492Z,1003.27
2018-09-19T07:00:30.564Z,1003.31
2018-09-19T07:01:40.744Z,1003.35
2018-09-19T07:02:50.546Z,1003.34
2018-09-19T07:04:00.661Z,1003.38
2018-09-19T07:05:10.732Z,1003.34
2018-09-19T07:06:20.825Z,1003.34
2018-09-19T07:07:30.917Z,1003.34
2018-09-19T07:08:40.742Z,1003.43
2018-09-19T07:09:50.842Z,1003.39
2018-09-19T07:11:04.031Z,1003.38
2018-09-19T07:12:14.140Z,1003.35
2018-09-19T07:13:24.235Z,1003.36
2018-09-19T07:14:34.051Z,1003.35
2018-09-19T07:15:43.881Z,1003.31
2018-09-19T07:16:54.004Z,1003.34
2018-09-19T07:18:04.797Z,1003.37
2018-09-19T07:19:14.619Z,1003.34
2018-09-19T07:20:24.713Z,1003.34
2018-09-19T07:21:34.816Z,1003.37
2018-09-19T07:22:44.927Z,1003.36
2018-09-19T07:23:55.136Z,1003.41
2018-09-19T07:25:05.105Z,1003.38
2018-09-19T07:26:15.818Z,1003.4
2018-09-19T07:27:25.926Z,1003.42
2018-09-19T07:28:36.026Z,1003.44
2018-09-19T07:29:46.126Z,1003.42
2018-09-19T07:30:56.339Z,1003.42
2018-09-19T07:32:06.863Z,1003.42
2018-09-19T07:33:16.378Z,1003.4
2018-09-19T07:34:26.209Z,1003.41
2018-09-19T07:35:36.100Z,1003.48
2018-09-19T07:36:46.217Z,1003.46
2018-09-19T07:37:56.328Z,1003.46
2018-09-19T07:39:06.435Z,1003.45
2018-09-19T07:40:16.619Z,1003.45
2018-09-19T07:41:27.030Z,1003.47
2018-09-19T07:42:36.883Z,1003.45
2018-09-19T07:43:46.955Z,1003.52
2018-09-19T07:44:56.770Z,1003.53
2018-09-19T07:46:06.851Z,1003.56
2018-09-19T07:47:16.948Z,1003.57
2018-09-19T07:48:27.030Z,1003.58
2018-09-19T07:49:37.127Z,1003.57
2018-09-19T07:50:47.208Z,1003.55
2018-09-19T07:51:57.032Z,1003.54
2018-09-19T07:53:07.130Z,1003.53
2018-09-19T07:54:17.232Z,1003.54
2018-09-19T07:55:27.260Z,1003.57
2018-09-19T07:56:37.567Z,1003.57
2018-09-19T07:57:47.707Z,1003.59
2018-09-19T07:58:57.584Z,1003.59
2018-09-19T08:00:08.266Z,1003.61
2018-09-19T08:01:18.154Z,1003.6
2018-09-19T08:02:28.568Z,1003.59
2018-09-19T08:03:38.748Z,1003.61
2018-09-19T08:04:48.568Z,1003.62
2018-09-19T08:05:58.701Z,1003.61
2018-09-19T08:07:08.545Z,1003.63
2018-09-19T08:08:18.655Z,1003.65
2018-09-19T08:09:28.495Z,1003.66
2018-09-19T08:10:38.562Z,1003.65
2018-09-19T08:11:48.719Z,1003.66
2018-09-19T08:12:58.880Z,1003.72
2018-09-19T08:14:08.963Z,1003.7
2018-09-19T08:15:18.860Z,1003.67
2018-09-19T08:16:28.953Z,1003.64
2018-09-19T08:17:39.061Z,1003.6
2018-09-19T08:18:49.157Z,1003.67
2018-09-19T08:19:58.986Z,1003.66
2018-09-19T08:21:09.091Z,1003.66
2018-09-19T08:22:19.198Z,1003.68
2018-09-19T08:23:29.435Z,1003.69
2018-09-19T08:24:39.288Z,1003.67
2018-09-19T08:25:49.127Z,1003.67
2018-09-19T08:26:59.249Z,1003.64
2018-09-19T08:28:09.086Z,1003.65
2018-09-19T08:29:19.212Z,1003.66
2018-09-19T08:30:29.326Z,1003.64
2018-09-19T08:31:39.433Z,1003.69
2018-09-19T08:32:49.528Z,1003.65
2018-09-19T08:33:59.367Z,1003.68
2018-09-19T08:35:09.473Z,1003.69
2018-09-19T08:36:19.570Z,1003.68
2018-09-19T08:37:29.654Z,1003.69
2018-09-19T08:38:39.822Z,1003.69
2018-09-19T08:39:49.952Z,1003.68
2018-09-19T08:40:59.787Z,1003.69
2018-09-19T08:42:10.009Z,1003.69
2018-09-19T08:43:20.122Z,1003.7
2018-09-19T08:44:30.208Z,1003.69
2018-09-19T08:45:40.023Z,1003.7
2018-09-19T08:46:49.623Z,1003.66
2018-09-19T08:47:59.732Z,1003.73
2018-09-19T08:49:09.614Z,1003.69
2018-09-19T08:50:19.705Z,1003.75
2018-09-19T08:51:30.049Z,1003.72
2018-09-19T08:52:39.929Z,1003.71
2018-09-19T08:53:50.055Z,1003.71
2018-09-19T08:54:59.918Z,1003.72
2018-09-19T08:56:10.010Z,1003.72
2018-09-19T08:57:19.848Z,1003.73
2018-09-19T08:58:29.965Z,1003.72
2018-09-19T08:59:40.065Z,1003.72
2018-09-19T09:00:50.172Z,1003.78
2018-09-19T09:02:00.025Z,1003.79
2018-09-19T09:03:10.137Z,1003.78
2018-09-19T09:04:19.970Z,1003.78
2018-09-19T09:05:30.090Z,1003.75
2018-09-19T09:06:40.237Z,1003.76
2018-09-19T09:07:50.432Z,1003.75
2018-09-19T09:09:00.326Z,1003.78
2018-09-19T09:10:10.134Z,1003.81
2018-09-19T09:11:20.390Z,1003.78
2018-09-19T09:12:30.580Z,1003.81
2018-09-19T09:13:41.025Z,1003.76
2018-09-19T09:14:50.609Z,1003.78
2018-09-19T09:16:01.055Z,1003.78
2018-09-19T09:17:11.161Z,1003.73
2018-09-19T09:18:21.255Z,1003.77
2018-09-19T09:19:31.396Z,1003.76
2018-09-19T09:20:41.280Z,1003.77
2018-09-19T09:21:51.368Z,1003.73
2018-09-19T09:23:01.408Z,1003.77
2018-09-19T09:24:11.520Z,1003.78
2018-09-19T09:25:21.683Z,1003.7
2018-09-19T09:26:31.808Z,1003.72
2018-09-19T09:27:41.673Z,1003.72
2018-09-19T09:28:51.789Z,1003.69
2018-09-19T09:30:04.342Z,1003.62
2018-09-19T09:31:15.223Z,1003.64
2018-09-19T09:32:25.514Z,1003.65
2018-09-19T09:33:35.626Z,1003.6
2018-09-19T09:34:45.756Z,1003.6
2018-09-19T09:35:55.644Z,1003.57
2018-09-19T09:37:05.703Z,1003.52
2018-09-19T09:38:15.819Z,1003.52
2018-09-19T09:39:25.648Z,1003.48
2018-09-19T09:40:35.579Z,1003.44
2018-09-19T09:41:45.898Z,1003.41
2018-09-19T09:42:56.061Z,1003.42
2018-09-19T09:44:05.905Z,1003.41
2018-09-19T09:45:15.748Z,1003.36
2018-09-19T09:46:25.876Z,1003.34
2018-09-19T09:47:36.004Z,1003.41
2018-09-19T09:48:45.304Z,1003.37
2018-09-19T09:49:55.392Z,1003.38
2018-09-19T09:51:05.638Z,1003.39
2018-09-19T09:52:15.728Z,1003.37
2018-09-19T09:53:25.917Z,1003.39
2018-09-19T09:54:36.250Z,1003.36
2018-09-19T09:55:46.096Z,1003.36
2018-09-19T09:56:56.186Z,1003.37
2018-09-19T09:58:06.729Z,1003.37
2018-09-19T09:59:16.933Z,1003.31
2018-09-19T10:00:26.866Z,1003.35
2018-09-19T10:01:36.942Z,1003.29
2018-09-19T10:02:47.032Z,1003.32
2018-09-19T10:03:57.116Z,1003.31
2018-09-19T10:05:07.211Z,1003.32
2018-09-19T10:06:17.038Z,1003.27
2018-09-19T10:07:26.947Z,1003.33
2018-09-19T10:08:37.111Z,1003.34
2018-09-19T10:09:46.676Z,1003.34
2018-09-19T10:10:56.769Z,1003.33
2018-09-19T10:12:06.601Z,1003.31
2018-09-19T10:13:16.169Z,1003.29
2018-09-19T10:14:26.053Z,1003.29
2018-09-19T10:15:36.167Z,1003.33
2018-09-19T10:16:46.260Z,1003.29
2018-09-19T10:17:56.353Z,1003.32
2018-09-19T10:19:06.489Z,1003.32
2018-09-19T10:20:16.645Z,1003.32
2018-09-19T10:21:26.490Z,1003.3
2018-09-19T10:22:36.576Z,1003.29
2018-09-19T10:23:46.661Z,1003.32
2018-09-19T10:24:56.475Z,1003.31
2018-09-19T10:26:07.278Z,1003.3
2018-09-19T10:27:17.361Z,1003.32
2018-09-19T10:28:27.186Z,1003.37
2018-09-19T10:29:37.323Z,1003.33
2018-09-19T10:30:47.491Z,1003.35
2018-09-19T10:31:57.666Z,1003.28
2018-09-19T10:33:07.745Z,1003.28
2018-09-19T10:34:17.830Z,1003.28
2018-09-19T10:35:27.980Z,1003.27
2018-09-19T10:36:38.048Z,1003.21
2018-09-19T10:37:48.211Z,1003.22
2018-09-19T10:38:58.318Z,1003.2
2018-09-19T10:40:08.498Z,1003.16
2018-09-19T10:41:18.627Z,1003.19
2018-09-19T10:42:28.749Z,1003.15
2018-09-19T10:43:38.863Z,1003.2
2018-09-19T10:44:49.092Z,1003.13
2018-09-19T10:45:58.933Z,1003.15
2018-09-19T10:47:09.039Z,1003.11
2018-09-19T10:48:18.872Z,1003.12
2018-09-19T10:49:29.150Z,1003.16
2018-09-19T10:50:39.531Z,1003.1
2018-09-19T10:51:49.101Z,1003.1
2018-09-19T10:52:59.203Z,1003.04
2018-09-19T10:54:09.306Z,1003
2018-09-19T10:55:19.425Z,1003.06
2018-09-19T10:56:29.557Z,1003.03
2018-09-19T10:57:39.372Z,1003.06
2018-09-19T10:58:49.236Z,1003.02
2018-09-19T10:59:59.055Z,1003
2018-09-19T11:01:09.156Z,1003
2018-09-19T11:02:18.987Z,1003
2018-09-19T11:03:29.095Z,1002.98
2018-09-19T11:04:38.928Z,1002.98
2018-09-19T11:05:49.053Z,1002.93
2018-09-19T11:06:58.874Z,1002.96
2018-09-19T11:08:08.975Z,1002.99
2018-09-19T11:09:19.142Z,1002.96
2018-09-19T11:10:29.014Z,1002.93
2018-09-19T11:11:38.607Z,1002.96
2018-09-19T11:12:48.759Z,1003.02
2018-09-19T11:13:58.874Z,1003
2018-09-19T11:15:09.911Z,1002.95
2018-09-19T11:16:20.018Z,1002.92
2018-09-19T11:17:30.105Z,1002.95
2018-09-19T11:18:40.048Z,1002.89
2018-09-19T11:19:50.138Z,1002.87
2018-09-19T11:21:00.319Z,1002.87
2018-09-19T11:22:10.415Z,1002.9
2018-09-19T11:23:20.533Z,1002.89
2018-09-19T11:24:30.641Z,1002.88
2018-09-19T11:25:40.484Z,1002.94
2018-09-19T11:26:50.650Z,1002.9
2018-09-19T11:28:00.556Z,1002.93
2018-09-19T11:29:10.657Z,1002.88
2018-09-19T11:30:20.772Z,1002.94
2018-09-19T11:31:30.878Z,1002.91
2018-09-19T11:32:40.755Z,1002.91
2018-09-19T11:33:50.587Z,1002.93
2018-09-19T11:35:00.577Z,1002.93
2018-09-19T11:36:10.722Z,1002.89
2018-09-19T11:37:20.568Z,1002.91
2018-09-19T11:38:30.410Z,1002.86
2018-09-19T11:39:40.437Z,1002.9
2018-09-19T11:40:50.561Z,1002.91
2018-09-19T11:42:01.407Z,1002.89
2018-09-19T11:43:11.528Z,1002.95
2018-09-19T11:44:21.765Z,1002.92
2018-09-19T11:45:31.603Z,1002.94
2018-09-19T11:46:41.687Z,1002.89
2018-09-19T11:47:51.765Z,1002.87
2018-09-19T11:49:03.511Z,1002.9
2018-09-19T11:50:13.610Z,1002.84
2018-09-19T11:51:23.741Z,1002.83
2018-09-19T11:52:33.835Z,1002.8
2018-09-19T11:53:43.969Z,1002.82
2018-09-19T11:54:53.806Z,1002.81
2018-09-19T11:56:03.899Z,1002.81
2018-09-19T11:57:14.031Z,1002.76
2018-09-19T11:58:24.187Z,1002.78
2018-09-19T11:59:34.369Z,1002.74
2018-09-19T12:00:44.240Z,1002.7
2018-09-19T12:01:54.374Z,1002.69
2018-09-19T12:03:04.882Z,1002.7
2018-09-19T12:04:14.950Z,1002.74
2018-09-19T12:05:24.821Z,1002.75
2018-09-19T12:06:34.640Z,1002.74
2018-09-19T12:07:44.489Z,1002.73
2018-09-19T12:08:54.388Z,1002.71
2018-09-19T12:10:04.916Z,1002.7
2018-09-19T12:11:14.999Z,1002.72
2018-09-19T12:12:24.310Z,1002.69
2018-09-19T12:13:34.420Z,1002.66
2018-09-19T12:14:44.503Z,1002.66
2018-09-19T12:15:54.378Z,1002.66
2018-09-19T12:17:05.916Z,1002.67
2018-09-19T12:18:15.474Z,1002.61
2018-09-19T12:19:25.578Z,1002.63
2018-09-19T12:20:35.709Z,1002.61
2018-09-19T12:21:45.835Z,1002.63
2018-09-19T12:22:55.933Z,1002.63
2018-09-19T12:24:05.744Z,1002.61
2018-09-19T12:25:15.889Z,1002.62
2018-09-19T12:26:26.006Z,1002.63
2018-09-19T12:27:36.055Z,1002.61
2018-09-19T12:28:46.143Z,1002.66
2018-09-19T12:29:56.019Z,1002.61
2018-09-19T12:31:06.122Z,1002.62
2018-09-19T12:32:15.684Z,1002.56
2018-09-19T12:33:25.857Z,1002.55
2018-09-19T12:34:36.044Z,1002.59
2018-09-19T12:35:46.185Z,1002.56
2018-09-19T12:36:56.304Z,1002.56
2018-09-19T12:38:06.395Z,1002.55
2018-09-19T12:39:16.489Z,1002.54
2018-09-19T12:40:26.734Z,1002.57
2018-09-19T12:41:36.818Z,1002.54
2018-09-19T12:42:46.895Z,1002.55
2018-09-19T12:43:57.003Z,1002.55
2018-09-19T12:45:07.198Z,1002.55
2018-09-19T12:46:17.299Z,1002.56
2018-09-19T12:47:27.138Z,1002.61
2018-09-19T12:48:36.973Z,1002.53
2018-09-19T12:49:46.801Z,1002.51
2018-09-19T12:50:56.636Z,1002.51
2018-09-19T12:52:06.490Z,1002.53
2018-09-19T12:53:16.391Z,1002.54
2018-09-19T12:54:26.417Z,1002.48
2018-09-19T12:55:36.535Z,1002.5
2018-09-19T12:56:46.366Z,1002.47
2018-09-19T12:57:56.510Z,1002.46
2018-09-19T12:59:07.156Z,1002.5
2018-09-19T13:00:16.778Z,1002.47
2018-09-19T13:01:26.896Z,1002.49
2018-09-19T13:02:37.023Z,1002.45
2018-09-19T13:03:47.203Z,1002.48
2018-09-19T13:04:57.306Z,1002.43
2018-09-19T13:06:07.196Z,1002.42
2018-09-19T13:07:17.040Z,1002.43
2018-09-19T13:08:27.104Z,1002.43
2018-09-19T13:09:37.344Z,1002.45
2018-09-19T13:10:47.457Z,1002.45
2018-09-19T13:11:57.647Z,1002.41
2018-09-19T13:13:07.750Z,1002.39
2018-09-19T13:14:17.855Z,1002.35
2018-09-19T13:15:27.948Z,1002.35
2018-09-19T13:16:37.799Z,1002.33
2018-09-19T13:17:47.936Z,1002.32
2018-09-19T13:18:58.051Z,1002.33
2018-09-19T13:20:07.711Z,1002.35
2018-09-19T13:21:17.579Z,1002.36
2018-09-19T13:22:27.674Z,1002.35
2018-09-19T13:23:37.552Z,1002.38
2018-09-19T13:24:47.634Z,1002.29
2018-09-19T13:25:57.757Z,1002.33
2018-09-19T13:27:07.848Z,1002.33
2018-09-19T13:28:18.051Z,1002.28
2018-09-19T13:29:28.033Z,1002.24
2018-09-19T13:30:38.150Z,1002.27
2018-09-19T13:31:48.232Z,1002.23
2018-09-19T13:32:58.330Z,1002.25
2018-09-19T13:34:08.441Z,1002.23
2018-09-19T13:35:18.534Z,1002.24
2018-09-19T13:36:28.367Z,1002.25
2018-09-19T13:37:37.928Z,1002.26
2018-09-19T13:38:47.753Z,1002.26
2018-09-19T13:39:57.853Z,1002.29
2018-09-19T13:41:11.074Z,1002.32
2018-09-19T13:42:21.142Z,1002.27
2018-09-19T13:43:30.981Z,1002.29
2018-09-19T13:44:41.058Z,1002.3
2018-09-19T13:45:51.095Z,1002.26
2018-09-19T13:47:02.959Z,1002.3
2018-09-19T13:48:13.046Z,1002.28
2018-09-19T13:49:23.192Z,1002.25
2018-09-19T13:50:33.075Z,1002.26
2018-09-19T13:51:43.159Z,1002.25
2018-09-19T13:52:53.303Z,1002.27
2018-09-19T13:54:03.401Z,1002.25
2018-09-19T13:55:13.265Z,1002.25
2018-09-19T13:56:23.080Z,1002.18
2018-09-19T13:57:33.181Z,1002.19
2018-09-19T13:58:43.462Z,1002.18
2018-09-19T13:59:53.434Z,1002.22
2018-09-19T14:01:06.018Z,1002.21
2018-09-19T14:02:16.124Z,1002.23
2018-09-19T14:03:26.223Z,1002.23
2018-09-19T14:04:36.397Z,1002.24
2018-09-19T14:05:46.565Z,1002.2
2018-09-19T14:06:56.407Z,1002.18
2018-09-19T14:08:06.495Z,1002.22
2018-09-19T14:09:16.626Z,1002.22
2018-09-19T14:10:26.522Z,1002.23
2018-09-19T14:11:36.760Z,1002.23
2018-09-19T14:12:47.191Z,1002.19
2018-09-19T14:13:57.300Z,1002.2
2018-09-19T14:15:07.401Z,1002.22
2018-09-19T14:16:17.315Z,1002.21
2018-09-19T14:17:27.422Z,1002.21
2018-09-19T14:18:37.529Z,1002.21
2018-09-19T14:19:47.633Z,1002.28
2018-09-19T14:20:57.781Z,1002.25
2018-09-19T14:22:07.941Z,1002.24
2018-09-19T14:23:18.029Z,1002.24
2018-09-19T14:24:28.119Z,1002.25
2018-09-19T14:25:38.221Z,1002.25
2018-09-19T14:26:48.321Z,1002.26
2018-09-19T14:27:58.232Z,1002.27
2018-09-19T14:29:11.095Z,1002.25
2018-09-19T14:30:21.177Z,1002.29
2018-09-19T14:31:31.280Z,1002.27
2018-09-19T14:32:41.361Z,1002.25
2018-09-19T14:33:51.535Z,1002.23
2018-09-19T14:35:01.366Z,1002.24
2018-09-19T14:36:11.210Z,1002.26
2018-09-19T14:37:21.085Z,1002.24
2018-09-19T14:38:31.214Z,1002.27
2018-09-19T14:39:41.369Z,1002.25
2018-09-19T14:40:51.474Z,1002.26